»·PEaware :: N111JM KSAN-5T6

N111JM :: KSAN-5T6

FLIGHT INFORMATION

Flight Status: Arrived
Operator: Privately registered:
United States
More flights under this callsign
Pilot: Chris A. (85)
Aircraft: CESSNA 510 CITATION MUSTANG
(C510)
More flights by this aircraft type
Origin: KSAN San Diego Intl-Lindbergh
United States
Destination: 5T6 Dona Ana Co At Santa Teresa
United States
More flights between these airports :: More routes between these airports
Route: ZZOOO1 IPL J18 GBN J50 SSO
File this flight plan on PilotEdge
Remarks:
Altitude:
(Current/Filed)
41,000ft
Speed:
(Current/Filed)
375kts
Departed: 19-Jun-17 12:57 PM
Arrived: 19-Jun-17 02:35 PM
Distance/Time
Traveled:
534nm/1:38
Distance/Time
To Go:
Arrived

Flight Plot

Page will automatically refresh every two minutes.

Flight plan parsing failed; only flown route is shown


Map Options




Map Legend


Flown Route
Filed Route
Departure Airport
Arrival Airport
Navaid (VOR, NDB)
Fix

Horizontal Profiles

Position Reports

Time Latitude Longitude Heading Altitude Ground
Speed
19-Jun-17 12:39 32.734497 -117.179575 140 17ft 0kts
19-Jun-17 12:40 32.734497 -117.179575 140 17ft 0kts
19-Jun-17 12:41 32.734497 -117.179575 140 17ft 0kts
19-Jun-17 12:42 32.734497 -117.179575 140 17ft 0kts
19-Jun-17 12:43 32.734497 -117.179575 140 17ft 0kts
19-Jun-17 12:44 32.734497 -117.179575 140 17ft 0kts
19-Jun-17 12:45 32.734497 -117.179575 140 17ft 0kts
19-Jun-17 12:46 32.734497 -117.179575 140 17ft 0kts
19-Jun-17 12:47 32.734497 -117.179575 140 17ft 0kts
19-Jun-17 12:48 32.734497 -117.179575 140 17ft 0kts
19-Jun-17 12:49 32.734497 -117.179575 140 17ft 0kts
19-Jun-17 12:50 32.734497 -117.179575 140 17ft 0kts
19-Jun-17 12:51 32.734497 -117.179575 140 17ft 0kts
19-Jun-17 12:52 32.734497 -117.179575 140 17ft 0kts
19-Jun-17 12:53 32.734497 -117.179575 140 17ft 0kts
19-Jun-17 12:54 32.734497 -117.179575 140 17ft 0kts
19-Jun-17 12:55 32.734497 -117.179575 140 17ft 0kts
19-Jun-17 12:56 32.734497 -117.179575 140 17ft 0kts
19-Jun-17 12:56 32.734497 -117.179575 140 17ft 0kts
19-Jun-17 12:57 32.732917 -117.179106 103 17ft 8kts
19-Jun-17 12:59 32.731274 -117.175809 136 17ft 7kts
19-Jun-17 13:00 32.731634 -117.181536 285 18ft 103kts
19-Jun-17 13:01 32.743323 -117.226879 284 2482ft 185kts
19-Jun-17 13:01 32.755917 -117.282251 285 4852ft 225kts
19-Jun-17 13:02 32.718448 -117.334672 179 7528ft 247kts
19-Jun-17 13:03 32.666525 -117.284897 126 9854ft 251kts
19-Jun-17 13:04 32.634114 -117.211557 105 12009ft 258kts
19-Jun-17 13:05 32.621219 -117.126400 96 14016ft 265kts
19-Jun-17 13:06 32.612773 -117.037356 95 15828ft 277kts
19-Jun-17 13:07 32.604481 -116.945244 95 17616ft 285kts
19-Jun-17 13:08 32.611480 -116.850755 72 19232ft 293kts
19-Jun-17 13:09 32.632110 -116.756564 79 20831ft 297kts
19-Jun-17 13:10 32.642285 -116.658471 82 22285ft 302kts
19-Jun-17 13:11 32.651805 -116.555599 82 23697ft 324kts
19-Jun-17 13:12 32.662154 -116.446914 82 25101ft 339kts
19-Jun-17 13:13 32.672897 -116.334389 82 26501ft 347kts
19-Jun-17 13:14 32.683739 -116.219578 83 27859ft 350kts
19-Jun-17 13:15 32.694520 -116.104321 83 29058ft 352kts
19-Jun-17 13:16 32.704904 -115.992548 84 30221ft 347kts
19-Jun-17 13:17 32.715478 -115.878652 84 31416ft 340kts
19-Jun-17 13:18 32.725718 -115.766742 85 32250ft 342kts
19-Jun-17 13:19 32.735867 -115.654453 85 33048ft 341kts
19-Jun-17 13:20 32.745891 -115.542546 85 33845ft 338kts
19-Jun-17 13:21 32.751611 -115.432178 91 34639ft 332kts
19-Jun-17 13:22 32.753746 -115.322931 92 35434ft 330kts
19-Jun-17 13:23 32.755952 -115.214213 92 36230ft 327kts
19-Jun-17 13:24 32.758256 -115.106999 92 37023ft 323kts
19-Jun-17 13:25 32.760486 -115.001186 93 37793ft 319kts
19-Jun-17 13:26 32.762634 -114.895337 93 38398ft 321kts
19-Jun-17 13:27 32.764703 -114.789359 93 38996ft 321kts
19-Jun-17 13:28 32.766677 -114.683818 93 39621ft 318kts
19-Jun-17 13:29 32.768494 -114.579119 93 40219ft 314kts
19-Jun-17 13:30 32.769979 -114.476378 93 40811ft 308kts
19-Jun-17 13:31 32.771274 -114.372768 93 40937ft 323kts
19-Jun-17 13:32 32.772582 -114.262902 93 40937ft 340kts
19-Jun-17 13:33 32.773934 -114.148012 93 40939ft 355kts
19-Jun-17 13:34 32.775249 -114.028824 93 40941ft 367kts
19-Jun-17 13:35 32.781878 -113.905793 83 40944ft 379kts
19-Jun-17 13:36 32.800955 -113.781358 81 40945ft 386kts
19-Jun-17 13:37 32.820413 -113.655059 81 40948ft 391kts
19-Jun-17 13:38 32.839175 -113.526812 82 40950ft 394kts
19-Jun-17 13:39 32.857459 -113.397976 82 40951ft 397kts
19-Jun-17 13:41 32.875563 -113.268319 82 40953ft 398kts
19-Jun-17 13:42 32.893614 -113.137689 82 40954ft 400kts
19-Jun-17 13:43 32.911501 -113.007063 82 40954ft 401kts
19-Jun-17 13:44 32.929272 -112.876038 83 40954ft 402kts
19-Jun-17 13:45 32.946981 -112.744238 83 40954ft 403kts
19-Jun-17 13:46 32.953421 -112.612477 99 40956ft 397kts
19-Jun-17 13:47 32.941399 -112.482260 102 40953ft 396kts
19-Jun-17 13:48 32.928041 -112.351708 102 40954ft 397kts
19-Jun-17 13:49 32.915434 -112.221343 101 40971ft 397kts
19-Jun-17 13:50 32.903113 -112.090823 101 40975ft 397kts
19-Jun-17 13:51 32.890745 -111.959778 102 40977ft 398kts
19-Jun-17 13:52 32.870948 -111.831481 111 40979ft 392kts
19-Jun-17 13:53 32.841803 -111.706912 113 40980ft 391kts
19-Jun-17 13:54 32.812906 -111.581693 112 40985ft 392kts
19-Jun-17 13:55 32.784864 -111.456494 112 40991ft 392kts
19-Jun-17 13:56 32.756726 -111.331348 112 40999ft 392kts
19-Jun-17 13:57 32.728294 -111.205787 112 40996ft 393kts
19-Jun-17 13:58 32.699813 -111.080740 112 41007ft 392kts
19-Jun-17 13:59 32.671204 -110.955804 112 41010ft 393kts
19-Jun-17 14:00 32.642370 -110.830495 112 41019ft 392kts
19-Jun-17 14:01 32.613457 -110.705702 113 41023ft 392kts
19-Jun-17 14:02 32.584448 -110.580993 113 41025ft 393kts
19-Jun-17 14:03 32.555256 -110.456017 113 41026ft 392kts
19-Jun-17 14:04 32.526034 -110.331532 113 41024ft 392kts
19-Jun-17 14:05 32.496673 -110.207079 113 41014ft 392kts
19-Jun-17 14:06 32.467130 -110.082442 113 41014ft 392kts
19-Jun-17 14:07 32.437571 -109.958358 113 41020ft 392kts
19-Jun-17 14:08 32.407971 -109.834725 113 41040ft 391kts
19-Jun-17 14:09 32.378099 -109.710551 113 41039ft 391kts
19-Jun-17 14:10 32.348219 -109.586890 113 41042ft 391kts
19-Jun-17 14:11 32.318170 -109.463194 114 41036ft 392kts
19-Jun-17 14:12 32.287893 -109.339193 114 41043ft 392kts
19-Jun-17 14:13 32.259989 -109.214533 108 41049ft 396kts
19-Jun-17 14:14 32.241478 -109.083866 106 39802ft 405kts
19-Jun-17 14:15 32.224485 -108.954769 106 37996ft 390kts
19-Jun-17 14:16 32.207200 -108.829999 107 36202ft 383kts
19-Jun-17 14:17 32.189176 -108.705025 107 34401ft 387kts
19-Jun-17 14:18 32.170834 -108.579562 106 32513ft 388kts
19-Jun-17 14:19 32.152488 -108.454729 106 30723ft 387kts
19-Jun-17 14:20 32.133960 -108.329733 106 28920ft 382kts
19-Jun-17 14:21 32.115877 -108.208073 106 27122ft 372kts
19-Jun-17 14:22 32.098137 -108.089875 105 25325ft 360kts
19-Jun-17 14:23 32.080724 -107.974889 105 23521ft 350kts
19-Jun-17 14:24 32.063639 -107.863194 105 21724ft 343kts
19-Jun-17 14:25 32.046778 -107.753516 104 19932ft 337kts
19-Jun-17 14:26 32.032801 -107.645181 98 18126ft 332kts
19-Jun-17 14:27 32.026418 -107.537421 97 17230ft 331kts
19-Jun-17 14:28 32.019600 -107.428585 97 15480ft 326kts
19-Jun-17 14:29 32.012248 -107.323350 97 13675ft 318kts
19-Jun-17 14:30 32.004785 -107.220650 97 11865ft 313kts
19-Jun-17 14:31 31.997249 -107.119869 96 10173ft 305kts
19-Jun-17 14:32 31.989095 -107.020496 103 8949ft 301kts
19-Jun-17 14:33 31.959581 -106.931237 114 7726ft 279kts
19-Jun-17 14:34 31.931670 -106.853697 113 6298ft 226kts
19-Jun-17 14:35 31.911119 -106.792603 116 5333ft 150kts
19-Jun-17 14:36 31.896896 -106.749215 118 4705ft 123kts
19-Jun-17 14:37 31.884306 -106.714485 120 4116ft 89kts
19-Jun-17 14:38 31.880757 -106.709049 126 4114ft 7kts
19-Jun-17 14:39 31.878906 -106.705282 185 4114ft 8kts
19-Jun-17 14:40 31.877229 -106.704612 112 4114ft 7kts
19-Jun-17 14:41 31.877097 -106.704254 113 4114ft 0kts
19-Jun-17 14:42 31.877097 -106.704254 113 4114ft 0kts
19-Jun-17 14:43 31.877097 -106.704254 113 4114ft 0kts
19-Jun-17 14:44 31.877097 -106.704254 113 4114ft 0kts
19-Jun-17 14:45 31.877097 -106.704254 113 4114ft 0kts
19-Jun-17 14:46 31.877097 -106.704254 113 4114ft 0kts
19-Jun-17 14:47 31.877097 -106.704254 113 4114ft 0kts
19-Jun-17 14:48 31.877097 -106.704254 113 4114ft 0kts
19-Jun-17 14:49 31.877097 -106.704254 113 4114ft 0kts

Navigation Log

Ident Type
Flight plan parsing failed, navigation log unavailable